createdAt,value
2023-05-22T00:01:06.887Z,100.00
2023-05-22T00:03:33.880Z,100.00
2023-05-22T00:06:00.615Z,100.00
2023-05-22T00:08:29.644Z,99.91
2023-05-22T00:10:56.623Z,100.00
2023-05-22T00:13:23.198Z,99.32
2023-05-22T00:15:49.902Z,100.00
2023-05-22T00:18:16.510Z,99.50
2023-05-22T00:20:46.354Z,100.00
2023-05-22T00:23:15.570Z,100.00
2023-05-22T00:25:42.444Z,100.00
2023-05-22T00:28:09.045Z,100.00
2023-05-22T00:30:37.251Z,100.00
2023-05-22T00:33:04.140Z,100.00
2023-05-22T00:35:31.123Z,100.00
2023-05-22T00:37:57.786Z,100.00
2023-05-22T00:40:24.354Z,100.00
2023-05-22T00:42:50.896Z,100.00
2023-05-22T00:45:17.545Z,100.00
2023-05-22T00:47:44.350Z,100.00
2023-05-22T00:50:11.982Z,100.00
2023-05-22T00:52:42.110Z,100.00
2023-05-22T00:55:10.161Z,100.00
2023-05-22T00:57:38.578Z,100.00
2023-05-22T01:00:06.634Z,100.00
2023-05-22T01:02:33.461Z,100.00
2023-05-22T01:05:00.164Z,100.00
2023-05-22T01:07:26.707Z,100.00
2023-05-22T01:09:53.291Z,100.00
2023-05-22T01:12:29.996Z,100.00
2023-05-22T01:15:02.802Z,100.00
2023-05-22T01:17:34.937Z,100.00
2023-05-22T01:20:26.551Z,100.00
2023-05-22T01:23:15.013Z,100.00
2023-05-22T01:25:56.652Z,100.00
2023-05-22T01:28:53.583Z,100.00
2023-05-22T01:31:27.123Z,100.00
2023-05-22T01:33:56.956Z,100.00
2023-05-22T01:36:28.784Z,100.00
2023-05-22T01:38:56.462Z,100.00
2023-05-22T01:41:23.451Z,100.00
2023-05-22T01:43:50.060Z,100.00
2023-05-22T01:46:16.653Z,100.00
2023-05-22T01:48:43.219Z,100.00
2023-05-22T01:51:15.994Z,100.00
2023-05-22T01:53:57.450Z,100.00
2023-05-22T01:56:34.574Z,100.00
2023-05-22T01:59:09.436Z,100.00
2023-05-22T02:01:38.314Z,100.00
2023-05-22T02:04:06.570Z,100.00
2023-05-22T02:06:33.740Z,100.00
2023-05-22T02:09:02.910Z,100.00
2023-05-22T02:11:32.866Z,100.00
2023-05-22T02:14:00.034Z,100.00
2023-05-22T02:16:28.777Z,100.00
2023-05-22T02:19:06.342Z,100.00
2023-05-22T02:21:34.320Z,100.00
2023-05-22T02:24:01.364Z,100.00
2023-05-22T02:26:28.288Z,100.00
2023-05-22T02:28:54.865Z,100.00
2023-05-22T02:31:21.534Z,100.00
2023-05-22T02:33:48.469Z,100.00
2023-05-22T02:36:15.033Z,100.00
2023-05-22T02:38:41.592Z,100.00
2023-05-22T02:41:08.371Z,100.00
2023-05-22T02:43:34.898Z,100.00
2023-05-22T02:46:01.530Z,100.00
2023-05-22T02:48:29.367Z,100.00
2023-05-22T02:50:55.940Z,100.00
2023-05-22T02:53:22.513Z,100.00
2023-05-22T02:55:49.113Z,100.00
2023-05-22T02:58:15.780Z,100.00
2023-05-22T03:00:43.302Z,100.00
2023-05-22T03:03:10.374Z,100.00
2023-05-22T03:05:37.448Z,100.00
2023-05-22T03:08:04.042Z,100.00
2023-05-22T03:10:31.120Z,100.00
2023-05-22T03:12:57.711Z,100.00
2023-05-22T03:15:24.278Z,100.00
2023-05-22T03:17:50.945Z,100.00
2023-05-22T03:20:17.852Z,100.00
2023-05-22T03:22:44.423Z,100.00
2023-05-22T03:25:11.062Z,100.00
2023-05-22T03:27:39.486Z,100.00
2023-05-22T03:30:06.757Z,100.00
2023-05-22T03:32:37.137Z,100.00
2023-05-22T03:35:05.202Z,100.00
2023-05-22T03:37:31.782Z,100.00
2023-05-22T03:39:58.373Z,100.00
2023-05-22T03:42:24.902Z,100.00
2023-05-22T03:44:51.485Z,100.00
2023-05-22T03:47:17.977Z,100.00
2023-05-22T03:49:44.579Z,100.00
2023-05-22T03:52:11.384Z,100.00
2023-05-22T03:54:37.894Z,100.00
2023-05-22T03:57:05.791Z,100.00
2023-05-22T03:59:32.281Z,100.00
2023-05-22T04:02:01.254Z,100.00
2023-05-22T04:04:28.477Z,100.00
2023-05-22T04:06:58.252Z,100.00
2023-05-22T04:09:31.427Z,100.00
2023-05-22T04:11:58.538Z,100.00
2023-05-22T04:14:25.044Z,100.00
2023-05-22T04:16:51.596Z,100.00
2023-05-22T04:19:18.287Z,100.00
2023-05-22T04:21:45.215Z,100.00
2023-05-22T04:24:11.718Z,100.00
2023-05-22T04:26:41.734Z,100.00
2023-05-22T04:29:10.511Z,100.00
2023-05-22T04:31:37.410Z,100.00
2023-05-22T04:34:04.235Z,100.00
2023-05-22T04:36:31.143Z,100.00
2023-05-22T04:38:57.777Z,100.00
2023-05-22T04:41:26.653Z,100.00
2023-05-22T04:43:54.549Z,100.00
2023-05-22T04:46:21.240Z,100.00
2023-05-22T04:48:47.883Z,100.00
2023-05-22T04:51:14.530Z,100.00
2023-05-22T04:53:41.104Z,100.00
2023-05-22T04:56:07.793Z,100.00
2023-05-22T04:58:34.257Z,100.00
2023-05-22T05:01:00.895Z,100.00
2023-05-22T05:03:28.477Z,100.00
2023-05-22T05:05:55.137Z,100.00
2023-05-22T05:08:21.724Z,100.00
2023-05-22T05:10:48.292Z,100.00
2023-05-22T05:13:14.921Z,100.00
2023-05-22T05:15:41.400Z,100.00
2023-05-22T05:18:08.008Z,100.00
2023-05-22T05:20:34.565Z,100.00
2023-05-22T05:23:01.144Z,100.00
2023-05-22T05:25:27.966Z,100.00
2023-05-22T05:27:54.528Z,100.00
2023-05-22T05:30:21.137Z,98.43
2023-05-22T05:32:47.685Z,96.31
2023-05-22T05:35:14.400Z,97.01
2023-05-22T05:37:41.778Z,95.14
2023-05-22T05:40:09.220Z,92.73
2023-05-22T05:42:35.966Z,93.75
2023-05-22T05:45:02.515Z,92.43
2023-05-22T05:47:29.794Z,90.91
2023-05-22T05:49:56.364Z,89.31
2023-05-22T05:52:22.915Z,88.46
2023-05-22T05:54:49.423Z,87.84
2023-05-22T05:57:16.482Z,86.61
2023-05-22T05:59:43.021Z,84.98
2023-05-22T06:02:09.857Z,83.69
2023-05-22T06:04:36.780Z,83.51
2023-05-22T06:07:03.300Z,81.80
2023-05-22T06:09:29.772Z,81.52
2023-05-22T06:11:56.337Z,79.71
2023-05-22T06:14:22.865Z,78.61
2023-05-22T06:16:49.434Z,77.14
2023-05-22T06:19:16.226Z,76.91
2023-05-22T06:21:42.840Z,74.95
2023-05-22T06:24:09.564Z,75.09
2023-05-22T06:26:36.205Z,74.14
2023-05-22T06:29:02.705Z,71.84
2023-05-22T06:31:29.404Z,70.65
2023-05-22T06:33:56.176Z,69.08
2023-05-22T06:36:22.809Z,68.53
2023-05-22T06:38:49.699Z,68.34
2023-05-22T06:41:16.273Z,68.69
2023-05-22T06:43:42.744Z,67.17
2023-05-22T06:46:09.517Z,66.87
2023-05-22T06:48:36.259Z,63.69
2023-05-22T06:51:02.948Z,63.08
2023-05-22T06:53:29.654Z,62.16
2023-05-22T06:55:56.834Z,62.96
2023-05-22T06:58:23.369Z,62.21
2023-05-22T07:00:49.957Z,60.78
2023-05-22T07:03:16.636Z,58.98
2023-05-22T07:05:43.280Z,58.50
2023-05-22T07:08:10.396Z,57.89
2023-05-22T07:10:37.086Z,58.10
2023-05-22T07:13:03.950Z,55.65
2023-05-22T07:15:30.518Z,56.16
2023-05-22T07:17:57.171Z,56.48
2023-05-22T07:20:25.691Z,54.46
2023-05-22T07:22:52.217Z,57.21
2023-05-22T07:25:18.709Z,56.20
2023-05-22T07:27:45.264Z,54.68
2023-05-22T07:30:12.363Z,53.84
2023-05-22T07:32:39.025Z,53.52
2023-05-22T07:35:06.110Z,50.65
2023-05-22T07:37:32.895Z,49.05
2023-05-22T07:39:59.493Z,48.48
2023-05-22T07:42:27.299Z,49.21
2023-05-22T07:44:53.772Z,46.95
2023-05-22T07:47:20.351Z,46.89
2023-05-22T07:49:46.961Z,46.25
2023-05-22T07:52:13.489Z,45.03
2023-05-22T07:54:41.523Z,42.51
2023-05-22T07:57:08.994Z,41.83
2023-05-22T07:59:37.574Z,43.14
2023-05-22T08:02:04.393Z,43.78
2023-05-22T08:04:31.121Z,42.77
2023-05-22T08:06:57.733Z,40.48
2023-05-22T08:09:24.312Z,41.75
2023-05-22T08:11:50.867Z,42.18
2023-05-22T08:14:17.414Z,41.13
2023-05-22T08:16:44.009Z,41.68
2023-05-22T08:19:11.118Z,40.34
2023-05-22T08:21:37.945Z,38.81
2023-05-22T08:24:04.597Z,41.01
2023-05-22T08:26:33.282Z,41.62
2023-05-22T08:29:00.531Z,39.74
2023-05-22T08:31:29.333Z,39.06
2023-05-22T08:34:02.478Z,37.39
2023-05-22T08:36:34.037Z,37.37
2023-05-22T08:39:01.449Z,37.86
2023-05-22T08:41:29.408Z,36.41
2023-05-22T08:43:56.010Z,37.54
2023-05-22T08:46:26.210Z,35.88
2023-05-22T08:48:57.055Z,38.65
2023-05-22T08:51:28.358Z,35.18
2023-05-22T08:53:58.931Z,34.07
2023-05-22T08:56:28.644Z,34.60
2023-05-22T08:58:57.386Z,34.39
2023-05-22T09:01:24.689Z,35.62
2023-05-22T09:03:51.764Z,35.15
2023-05-22T09:06:18.622Z,35.59
2023-05-22T09:08:46.035Z,35.12
2023-05-22T09:11:13.266Z,34.76
2023-05-22T09:13:41.287Z,34.90
2023-05-22T09:16:12.754Z,33.99
2023-05-22T09:18:40.185Z,34.38
2023-05-22T09:21:14.786Z,35.05
2023-05-22T09:23:53.936Z,36.68
2023-05-22T09:26:21.036Z,34.91
2023-05-22T09:28:47.657Z,35.05
2023-05-22T09:31:14.624Z,33.80
2023-05-22T09:33:44.152Z,32.94
2023-05-22T09:36:11.056Z,33.02
2023-05-22T09:38:37.684Z,33.30
2023-05-22T09:41:04.215Z,32.25
2023-05-22T09:43:31.225Z,31.79
2023-05-22T09:46:01.722Z,33.38
2023-05-22T09:48:28.646Z,31.32
2023-05-22T09:50:56.112Z,33.63
2023-05-22T09:53:27.942Z,34.45
2023-05-22T09:55:56.768Z,33.34
2023-05-22T09:58:25.231Z,32.20
2023-05-22T10:00:52.958Z,32.21
2023-05-22T10:03:23.339Z,32.60
2023-05-22T10:05:52.466Z,32.82
2023-05-22T10:08:23.370Z,33.22
2023-05-22T10:10:53.266Z,31.74
2023-05-22T10:13:20.873Z,31.67
2023-05-22T10:15:49.098Z,31.09
2023-05-22T10:18:17.275Z,32.03
2023-05-22T10:20:46.846Z,31.32
2023-05-22T10:23:16.522Z,30.63
2023-05-22T10:25:44.611Z,32.39
2023-05-22T10:28:13.393Z,33.18
2023-05-22T10:30:40.179Z,31.79
2023-05-22T10:33:14.578Z,32.46
2023-05-22T10:35:55.426Z,32.43
2023-05-22T10:38:24.737Z,33.42
2023-05-22T10:40:51.624Z,30.81
2023-05-22T10:43:18.455Z,33.54
2023-05-22T10:45:46.737Z,31.90
2023-05-22T10:48:13.646Z,30.29
2023-05-22T10:50:41.041Z,29.74
2023-05-22T10:53:28.041Z,28.89
2023-05-22T10:55:56.943Z,30.44
2023-05-22T10:58:28.716Z,29.93
2023-05-22T11:01:21.441Z,29.90
2023-05-22T11:04:10.600Z,29.60
2023-05-22T11:06:47.132Z,31.09
2023-05-22T11:09:29.876Z,30.01
2023-05-22T11:12:25.587Z,29.69
2023-05-22T11:14:53.410Z,30.34
2023-05-22T11:17:24.098Z,29.04
2023-05-22T11:20:00.708Z,29.32
2023-05-22T11:22:51.218Z,27.80
2023-05-22T11:25:19.375Z,28.36
2023-05-22T11:27:47.763Z,28.93
2023-05-22T11:30:15.675Z,28.51
2023-05-22T11:32:48.023Z,28.92
2023-05-22T11:35:15.703Z,27.35
2023-05-22T11:37:42.281Z,28.67
2023-05-22T11:40:09.991Z,28.64
2023-05-22T11:42:37.736Z,28.08
2023-05-22T11:45:05.260Z,27.92
2023-05-22T11:47:31.957Z,28.19
2023-05-22T11:49:59.918Z,27.66
2023-05-22T11:52:31.600Z,27.56
2023-05-22T11:55:02.429Z,27.40
2023-05-22T11:57:29.035Z,27.10
2023-05-22T11:59:56.031Z,27.88
2023-05-22T12:02:22.648Z,26.73
2023-05-22T12:04:54.604Z,26.51
2023-05-22T12:07:22.479Z,27.46
2023-05-22T12:09:49.263Z,26.51
2023-05-22T12:12:16.271Z,27.31
2023-05-22T12:14:46.024Z,25.50
2023-05-22T12:17:13.401Z,24.80
2023-05-22T12:19:41.200Z,26.24
2023-05-22T12:22:08.998Z,26.32
2023-05-22T12:24:46.041Z,26.12
2023-05-22T12:27:13.497Z,25.09
2023-05-22T12:29:41.145Z,25.98
2023-05-22T12:32:11.879Z,25.45
2023-05-22T12:34:48.098Z,24.79
2023-05-22T12:37:22.840Z,24.94
2023-05-22T12:39:57.512Z,24.35
2023-05-22T12:42:24.943Z,26.03
2023-05-22T12:44:56.615Z,27.10
2023-05-22T12:47:24.538Z,27.60
2023-05-22T12:49:51.619Z,27.50
2023-05-22T12:52:18.188Z,29.08
2023-05-22T12:54:44.895Z,27.45
2023-05-22T12:57:11.492Z,27.67
2023-05-22T12:59:38.057Z,26.99
2023-05-22T13:02:05.539Z,28.40
2023-05-22T13:04:32.479Z,26.68
2023-05-22T13:06:59.084Z,27.27
2023-05-22T13:09:25.958Z,27.03
2023-05-22T13:11:52.551Z,29.05
2023-05-22T13:14:19.395Z,29.16
2023-05-22T13:16:45.970Z,27.03
2023-05-22T13:19:12.587Z,30.24
2023-05-22T13:21:39.182Z,27.59
2023-05-22T13:24:05.848Z,27.68
2023-05-22T13:26:32.371Z,26.94
2023-05-22T13:28:58.902Z,24.41
2023-05-22T13:31:25.519Z,24.26
2023-05-22T13:33:52.273Z,24.97
2023-05-22T13:36:19.035Z,26.70
2023-05-22T13:38:45.694Z,27.10
2023-05-22T13:41:12.397Z,26.80
2023-05-22T13:43:38.870Z,29.81
2023-05-22T13:46:05.654Z,29.80
2023-05-22T13:48:32.238Z,31.61
2023-05-22T13:50:58.766Z,33.79
2023-05-22T13:53:25.356Z,32.71
2023-05-22T13:55:51.866Z,33.43
2023-05-22T13:58:18.337Z,32.43
2023-05-22T14:00:44.824Z,30.71
2023-05-22T14:03:17.291Z,30.63
2023-05-22T14:05:45.390Z,28.52
2023-05-22T14:08:12.621Z,28.03
2023-05-22T14:10:39.662Z,27.45
2023-05-22T14:13:06.419Z,28.19
2023-05-22T14:15:33.024Z,28.72
2023-05-22T14:17:59.908Z,29.60
2023-05-22T14:20:26.758Z,30.07
2023-05-22T14:22:57.501Z,30.88
2023-05-22T14:25:26.286Z,30.49
2023-05-22T14:27:54.176Z,31.07
2023-05-22T14:30:20.731Z,31.89
2023-05-22T14:32:47.540Z,31.42
2023-05-22T14:35:14.186Z,32.52
2023-05-22T14:37:40.771Z,32.00
2023-05-22T14:40:08.225Z,32.53
2023-05-22T14:42:36.099Z,31.89
2023-05-22T14:45:03.924Z,31.85
2023-05-22T14:47:30.455Z,31.93
2023-05-22T14:50:03.092Z,32.96
2023-05-22T14:52:43.497Z,32.98
2023-05-22T14:55:10.097Z,32.61
2023-05-22T14:57:36.607Z,33.80
2023-05-22T15:00:04.935Z,34.47
2023-05-22T15:02:31.559Z,35.51
2023-05-22T15:04:58.086Z,35.53
2023-05-22T15:07:29.399Z,36.17
2023-05-22T15:10:07.886Z,36.97
2023-05-22T15:12:34.435Z,37.41
2023-05-22T15:15:01.562Z,37.73
2023-05-22T15:17:28.135Z,38.87
2023-05-22T15:19:54.615Z,38.58
2023-05-22T15:22:21.116Z,38.84
2023-05-22T15:24:48.174Z,38.60
2023-05-22T15:27:14.894Z,39.77
2023-05-22T15:29:41.986Z,40.37
2023-05-22T15:32:09.203Z,40.81
2023-05-22T15:34:36.046Z,41.78
2023-05-22T15:37:02.545Z,41.67
2023-05-22T15:39:29.668Z,42.22
2023-05-22T15:42:05.879Z,42.52
2023-05-22T15:44:33.210Z,42.72
2023-05-22T15:46:59.746Z,43.17
2023-05-22T15:49:28.033Z,42.81
2023-05-22T15:51:58.358Z,43.95
2023-05-22T15:54:24.974Z,45.17
2023-05-22T15:56:51.594Z,42.71
2023-05-22T15:59:18.128Z,43.01
2023-05-22T16:01:44.774Z,44.40
2023-05-22T16:04:11.527Z,43.45
2023-05-22T16:06:38.032Z,44.04
2023-05-22T16:09:04.561Z,45.38
2023-05-22T16:11:31.192Z,45.43
2023-05-22T16:13:57.756Z,45.31
2023-05-22T16:16:24.334Z,46.11
2023-05-22T16:18:50.993Z,46.10
2023-05-22T16:21:17.494Z,45.73
2023-05-22T16:23:44.035Z,47.59
2023-05-22T16:26:10.637Z,47.62
2023-05-22T16:28:37.189Z,47.92
2023-05-22T16:31:06.114Z,48.55
2023-05-22T16:33:34.422Z,49.71
2023-05-22T16:36:02.660Z,49.63
2023-05-22T16:38:29.254Z,51.38
2023-05-22T16:40:55.975Z,50.84
2023-05-22T16:43:22.489Z,51.72
2023-05-22T16:45:51.169Z,52.45
2023-05-22T16:48:18.280Z,53.26
2023-05-22T16:50:46.615Z,52.10
2023-05-22T16:53:16.677Z,53.41
2023-05-22T16:55:43.465Z,52.79
2023-05-22T16:58:11.568Z,51.50
2023-05-22T17:00:40.142Z,51.45
2023-05-22T17:03:08.418Z,52.74
2023-05-22T17:05:36.660Z,51.60
2023-05-22T17:08:03.447Z,52.39
2023-05-22T17:10:30.071Z,51.78
2023-05-22T17:12:56.717Z,49.89
2023-05-22T17:15:23.509Z,51.41
2023-05-22T17:17:50.792Z,50.79
2023-05-22T17:20:17.472Z,49.58
2023-05-22T17:22:44.061Z,50.83
2023-05-22T17:25:10.621Z,53.77
2023-05-22T17:27:37.199Z,55.96
2023-05-22T17:30:04.992Z,58.70
2023-05-22T17:32:31.804Z,65.79
2023-05-22T17:34:58.651Z,66.14
2023-05-22T17:37:25.183Z,69.64
2023-05-22T17:39:51.844Z,72.37
2023-05-22T17:42:18.417Z,73.46
2023-05-22T17:44:45.090Z,75.84
2023-05-22T17:47:13.305Z,78.15
2023-05-22T17:49:39.823Z,80.56
2023-05-22T17:52:08.652Z,83.83
2023-05-22T17:54:35.752Z,85.41
2023-05-22T17:57:04.098Z,86.61
2023-05-22T17:59:32.491Z,92.36
2023-05-22T18:01:59.156Z,89.31
2023-05-22T18:04:26.037Z,90.15
2023-05-22T18:06:52.711Z,95.30
2023-05-22T18:09:19.268Z,94.32
2023-05-22T18:11:45.893Z,93.94
2023-05-22T18:14:12.637Z,89.52
2023-05-22T18:16:39.231Z,91.00
2023-05-22T18:19:05.863Z,91.62
2023-05-22T18:21:32.364Z,95.40
2023-05-22T18:23:59.017Z,92.47
2023-05-22T18:26:26.712Z,97.07
2023-05-22T18:28:53.318Z,99.00
2023-05-22T18:31:20.018Z,98.77
2023-05-22T18:33:46.644Z,96.85
2023-05-22T18:36:13.397Z,92.99
2023-05-22T18:38:39.905Z,94.18
2023-05-22T18:41:07.211Z,98.27
2023-05-22T18:43:33.804Z,99.64
2023-05-22T18:46:00.517Z,100.00
2023-05-22T18:48:28.219Z,100.00
2023-05-22T18:50:57.378Z,100.00
2023-05-22T18:53:25.300Z,100.00
2023-05-22T18:55:53.757Z,100.00
2023-05-22T18:58:20.648Z,100.00
2023-05-22T19:00:47.267Z,100.00
2023-05-22T19:03:14.116Z,100.00
2023-05-22T19:05:41.169Z,100.00
2023-05-22T19:08:07.747Z,100.00
2023-05-22T19:10:34.420Z,100.00
2023-05-22T19:13:01.006Z,100.00
2023-05-22T19:15:27.618Z,100.00
2023-05-22T19:17:54.145Z,100.00
2023-05-22T19:20:20.836Z,100.00
2023-05-22T19:22:47.391Z,100.00
2023-05-22T19:25:13.961Z,100.00
2023-05-22T19:27:40.484Z,100.00
2023-05-22T19:30:07.545Z,100.00
2023-05-22T19:32:34.247Z,100.00
2023-05-22T19:35:01.499Z,100.00
2023-05-22T19:37:28.059Z,100.00
2023-05-22T19:39:54.572Z,100.00
2023-05-22T19:42:21.110Z,100.00
2023-05-22T19:44:54.510Z,100.00
2023-05-22T19:47:21.057Z,100.00
2023-05-22T19:49:47.553Z,100.00
2023-05-22T19:52:14.025Z,100.00
2023-05-22T19:54:40.569Z,100.00
2023-05-22T19:57:07.238Z,100.00
2023-05-22T19:59:36.413Z,100.00
2023-05-22T20:02:03.319Z,100.00
2023-05-22T20:04:30.409Z,100.00
2023-05-22T20:06:58.724Z,100.00
2023-05-22T20:09:26.940Z,100.00
2023-05-22T20:11:53.607Z,100.00
2023-05-22T20:14:20.133Z,100.00
2023-05-22T20:16:46.671Z,100.00
2023-05-22T20:19:14.799Z,100.00
2023-05-22T20:21:41.471Z,100.00
2023-05-22T20:24:21.010Z,100.00
2023-05-22T20:26:50.496Z,100.00
2023-05-22T20:29:20.443Z,100.00
2023-05-22T20:31:50.301Z,100.00
2023-05-22T20:34:19.891Z,100.00
2023-05-22T20:36:46.628Z,100.00
2023-05-22T20:39:13.543Z,100.00
2023-05-22T20:41:40.179Z,100.00
2023-05-22T20:44:06.804Z,100.00
2023-05-22T20:46:33.801Z,100.00
2023-05-22T20:49:03.425Z,100.00
2023-05-22T20:51:32.575Z,100.00
2023-05-22T20:53:59.873Z,100.00
2023-05-22T20:56:27.175Z,100.00
2023-05-22T20:58:54.700Z,100.00
2023-05-22T21:01:21.409Z,100.00
2023-05-22T21:03:49.854Z,100.00
2023-05-22T21:06:16.450Z,100.00
2023-05-22T21:08:42.909Z,100.00
2023-05-22T21:11:09.485Z,100.00
2023-05-22T21:13:36.352Z,100.00
2023-05-22T21:16:02.884Z,100.00
2023-05-22T21:18:29.389Z,100.00
2023-05-22T21:20:55.851Z,100.00
2023-05-22T21:23:24.539Z,100.00
2023-05-22T21:25:51.413Z,100.00
2023-05-22T21:28:17.889Z,100.00
2023-05-22T21:30:44.464Z,100.00
2023-05-22T21:33:12.026Z,100.00
2023-05-22T21:35:38.535Z,100.00
2023-05-22T21:38:05.069Z,100.00
2023-05-22T21:40:31.605Z,100.00
2023-05-22T21:42:58.124Z,100.00
2023-05-22T21:45:24.626Z,100.00
2023-05-22T21:47:51.282Z,100.00
2023-05-22T21:50:17.970Z,100.00
2023-05-22T21:52:44.511Z,100.00
2023-05-22T21:55:11.139Z,100.00
2023-05-22T21:57:37.710Z,100.00
2023-05-22T22:00:04.525Z,100.00
2023-05-22T22:02:31.248Z,100.00
2023-05-22T22:04:57.771Z,100.00
2023-05-22T22:07:24.268Z,100.00
2023-05-22T22:09:50.861Z,100.00
2023-05-22T22:12:17.392Z,100.00
2023-05-22T22:14:43.931Z,100.00
2023-05-22T22:17:10.452Z,100.00
2023-05-22T22:19:37.087Z,100.00
2023-05-22T22:22:03.996Z,100.00
2023-05-22T22:24:30.532Z,100.00
2023-05-22T22:26:57.166Z,100.00
2023-05-22T22:29:23.741Z,100.00
2023-05-22T22:31:50.486Z,100.00
2023-05-22T22:34:17.199Z,100.00
2023-05-22T22:36:43.998Z,100.00
2023-05-22T22:39:11.184Z,100.00
2023-05-22T22:41:37.895Z,100.00
2023-05-22T22:44:04.507Z,100.00
2023-05-22T22:46:31.318Z,100.00
2023-05-22T22:49:01.828Z,100.00
2023-05-22T22:51:31.630Z,100.00
2023-05-22T22:53:58.443Z,100.00
2023-05-22T22:56:29.242Z,100.00
2023-05-22T22:58:57.106Z,100.00
2023-05-22T23:01:24.011Z,100.00
2023-05-22T23:03:50.942Z,100.00
2023-05-22T23:06:18.230Z,100.00
2023-05-22T23:08:44.803Z,100.00
2023-05-22T23:11:11.343Z,100.00
2023-05-22T23:13:40.433Z,100.00
2023-05-22T23:16:07.042Z,100.00
2023-05-22T23:18:33.576Z,100.00
2023-05-22T23:21:00.150Z,100.00
2023-05-22T23:23:27.907Z,100.00
2023-05-22T23:25:55.319Z,100.00
2023-05-22T23:28:22.627Z,100.00
2023-05-22T23:30:49.194Z,100.00
2023-05-22T23:33:16.038Z,100.00
2023-05-22T23:35:42.662Z,100.00
2023-05-22T23:38:09.224Z,100.00
2023-05-22T23:40:35.781Z,100.00
2023-05-22T23:43:02.346Z,100.00
2023-05-22T23:45:28.881Z,100.00
2023-05-22T23:47:55.440Z,100.00
2023-05-22T23:50:21.948Z,100.00
2023-05-22T23:52:48.591Z,100.00
2023-05-22T23:55:15.661Z,100.00
2023-05-22T23:57:42.249Z,100.00
